Lester Pr, Minnesota
Current Conditions -  °F | °C
As of 2:34 AM on Thursday 29 Jan 2015 (Local Time) from KGYL Reporting Station
Overcast Overcast  
Wind Chill: 25°   Ceiling: 1400
Heat Index: 34°   Visibility: 10mi
Dew Point: 33°   Wind: 14mph
Humidity: 94%   Direction: 310°NW
Pressure: 29.93"   Gusts: 18mph
Location:  44.8552°N, 94.071°W
Report Text: KGYL 290834Z AUTO 31012G16KT 10SM OVC014 01/01 A2993 RMK AO2 T00130005
Loading
Personal Weather Stations






























Interactive Weather Map New forecast layout! Learn more

10-Day Weather Forecast

Advertisements
Track Severe Weather on mobile